Time;durP1;ratioP1;P1;durP2;ratioP2;P2;SDS_P1;SDS_P2;PMS_P1;PMS_P2;Temp;Humidity;BMP_temperature;BMP_pressure;BME280_temperature;BME280_humidity;BME280_pressure;Samples;Min_cycle;Max_cycle;Signal;HPM_P1;HPM_P2
2022/01/12 00:00:56;;;;;;;16.67;10.90;;;;;;;;;;4991661;28;20218;-74
2022/01/12 00:03:21;;;;;;;16.50;10.57;;;;;;;;;;4972785;28;20300;-75
2022/01/12 00:05:47;;;;;;;19.00;10.93;;;;;;;;;;4974174;28;20713;-74
2022/01/12 00:08:17;;;;;;;15.03;10.90;;;;;;;;;;4993032;28;20591;-71
2022/01/12 00:10:43;;;;;;;15.90;10.30;;;;;;;;;;4992413;28;20225;-73
2022/01/12 00:13:09;;;;;;;16.20;10.13;;;;;;;;;;4968762;28;20234;-74
2022/01/12 00:15:38;;;;;;;15.03;10.37;;;;;;;;;;4937493;29;20235;-73
2022/01/12 00:18:11;;;;;;;17.33;10.63;;;;;;;;;;4991093;28;20245;-74
2022/01/12 00:20:42;;;;;;;14.83;10.13;;;;;;;;;;4992140;28;20639;-73
2022/01/12 00:23:08;;;;;;;16.80;10.43;;;;;;;;;;4957231;28;20230;-74
2022/01/12 00:25:57;;;;;;;14.30;10.13;;;;;;;;;;4940170;28;20222;-74
2022/01/12 00:34:11;;;;;;;13.10;9.87;;;;;;;;;;4978050;28;20232;-74
2022/01/12 00:36:39;;;;;;;15.47;9.80;;;;;;;;;;4971803;28;20218;-74
2022/01/12 00:39:09;;;;;;;17.33;10.43;;;;;;;;;;4956201;28;20214;-73
2022/01/12 00:41:37;;;;;;;13.27;9.93;;;;;;;;;;4942290;28;20213;-73
2022/01/12 00:44:06;;;;;;;15.43;10.30;;;;;;;;;;4975150;28;20231;-73
2022/01/12 00:46:34;;;;;;;13.23;9.73;;;;;;;;;;4971156;28;20631;-73
2022/01/12 00:49:00;;;;;;;14.00;9.53;;;;;;;;;;4972532;28;20267;-73
2022/01/12 00:51:30;;;;;;;13.87;9.63;;;;;;;;;;4959528;28;20727;-73
2022/01/12 00:53:56;;;;;;;13.33;10.00;;;;;;;;;;4963447;28;20230;-73
2022/01/12 00:56:26;;;;;;;11.63;9.33;;;;;;;;;;4971014;28;20261;-73
2022/01/12 00:58:57;;;;;;;11.87;9.57;;;;;;;;;;4944771;28;20214;-73
2022/01/12 01:01:27;;;;;;;15.53;9.20;;;;;;;;;;4971409;28;20234;-73
2022/01/12 01:03:53;;;;;;;13.67;9.47;;;;;;;;;;4966629;28;20701;-73
2022/01/12 01:06:22;;;;;;;10.70;8.67;;;;;;;;;;4936719;28;20345;-73
2022/01/12 01:08:53;;;;;;;14.00;9.87;;;;;;;;;;4952900;28;20762;-73
2022/01/12 01:11:28;;;;;;;12.37;8.43;;;;;;;;;;4968343;28;20273;-73
2022/01/12 01:14:00;;;;;;;12.97;9.40;;;;;;;;;;4973010;28;20654;-73
2022/01/12 01:27:07;;;;;;;11.90;8.53;;;;;;;;;;4944752;28;20230;-73
2022/01/12 01:29:35;;;;;;;13.23;9.03;;;;;;;;;;4958575;28;20757;-73
2022/01/12 01:32:01;;;;;;;14.60;8.93;;;;;;;;;;4958293;28;20229;-73
2022/01/12 01:34:32;;;;;;;13.90;9.30;;;;;;;;;;4955362;28;20233;-73
2022/01/12 01:36:58;;;;;;;13.57;8.93;;;;;;;;;;4955560;28;20301;-73
2022/01/12 01:39:27;;;;;;;13.93;9.40;;;;;;;;;;4970212;28;20241;-74
2022/01/12 01:41:58;;;;;;;11.90;9.20;;;;;;;;;;4942204;28;20699;-73
2022/01/12 01:55:17;;;;;;;12.93;9.03;;;;;;;;;;4956994;28;20679;-73
2022/01/12 01:57:42;;;;;;;12.73;8.77;;;;;;;;;;4940767;28;20230;-73
2022/01/12 02:00:10;;;;;;;11.37;8.67;;;;;;;;;;4973779;28;20225;-73
2022/01/12 02:02:53;;;;;;;11.40;8.97;;;;;;;;;;4975618;28;20220;-73
2022/01/12 02:05:26;;;;;;;11.03;8.57;;;;;;;;;;4974588;28;20225;-73
2022/01/12 02:07:52;;;;;;;12.57;8.83;;;;;;;;;;4990098;28;20217;-73
2022/01/12 02:10:21;;;;;;;12.37;8.57;;;;;;;;;;4970306;28;20726;-73
2022/01/12 02:12:50;;;;;;;11.67;8.73;;;;;;;;;;4954785;28;20270;-73
2022/01/12 02:15:23;;;;;;;14.13;8.90;;;;;;;;;;4973619;28;20249;-73
2022/01/12 02:18:05;;;;;;;12.37;9.13;;;;;;;;;;4958538;28;20655;-73
2022/01/12 02:40:30;;;;;;;10.60;8.53;;;;;;;;;;4961258;28;20217;-74
2022/01/12 02:43:15;;;;;;;12.13;8.20;;;;;;;;;;4958209;28;20703;-73
2022/01/12 02:50:42;;;;;;;11.93;8.90;;;;;;;;;;4946731;28;20301;-73
2022/01/12 02:51:36;;;;;;;13.03;9.17;;;;;;;;;;4979996;28;20238;-72
2022/01/12 02:54:04;;;;;;;13.93;8.73;;;;;;;;;;4983741;28;20246;-73
2022/01/12 02:56:32;;;;;;;13.60;8.93;;;;;;;;;;4993164;28;20230;-74
2022/01/12 02:58:59;;;;;;;13.60;9.17;;;;;;;;;;4954700;28;20281;-73
2022/01/12 03:04:02;;;;;;;15.53;9.93;;;;;;;;;;4961836;28;20312;-73
2022/01/12 03:06:36;;;;;;;13.30;9.10;;;;;;;;;;4977855;28;20225;-73
2022/01/12 03:09:04;;;;;;;12.73;9.50;;;;;;;;;;4975345;28;20214;-72
2022/01/12 03:11:33;;;;;;;14.10;10.07;;;;;;;;;;4971267;28;20622;-73
2022/01/12 03:14:11;;;;;;;11.97;9.33;;;;;;;;;;4975495;28;20213;-73
2022/01/12 03:16:37;;;;;;;15.43;9.53;;;;;;;;;;4963677;28;20229;-72
2022/01/12 03:19:08;;;;;;;14.97;9.90;;;;;;;;;;4960858;28;20237;-72
2022/01/12 03:21:37;;;;;;;14.83;10.03;;;;;;;;;;4992523;28;20221;-73
2022/01/12 03:24:03;;;;;;;13.70;9.47;;;;;;;;;;4972729;28;20704;-73
2022/01/12 03:26:33;;;;;;;13.83;10.30;;;;;;;;;;4941740;28;20232;-73
2022/01/12 03:29:01;;;;;;;13.07;9.63;;;;;;;;;;4974011;28;20226;-73
2022/01/12 03:31:34;;;;;;;15.27;11.13;;;;;;;;;;4975697;28;20209;-73
2022/01/12 03:34:11;;;;;;;13.70;10.73;;;;;;;;;;4977337;28;20280;-73
2022/01/12 03:39:10;;;;;;;14.27;11.03;;;;;;;;;;4956763;28;20403;-73
2022/01/12 03:41:40;;;;;;;16.53;11.53;;;;;;;;;;4957261;28;20222;-73
2022/01/12 03:44:07;;;;;;;14.27;11.30;;;;;;;;;;4972880;28;20766;-72
2022/01/12 03:46:44;;;;;;;16.03;11.70;;;;;;;;;;4976130;28;20228;-75
2022/01/12 03:49:13;;;;;;;14.83;10.47;;;;;;;;;;4976670;28;20225;-74
2022/01/12 03:51:41;;;;;;;16.87;11.53;;;;;;;;;;4957570;28;20245;-74
2022/01/12 03:54:14;;;;;;;13.67;11.53;;;;;;;;;;4956941;28;20218;-73
2022/01/12 03:56:42;;;;;;;16.37;10.93;;;;;;;;;;4959156;28;20714;-73
2022/01/12 03:59:08;;;;;;;15.00;11.50;;;;;;;;;;4959800;28;20312;-73
2022/01/12 04:01:36;;;;;;;15.83;11.77;;;;;;;;;;4959075;28;20295;-73
2022/01/12 04:04:06;;;;;;;14.83;11.83;;;;;;;;;;4941050;28;20708;-72
2022/01/12 04:09:19;;;;;;;16.40;12.07;;;;;;;;;;4992824;28;20237;-74
2022/01/12 04:11:47;;;;;;;14.40;12.13;;;;;;;;;;4974077;28;20218;-71
2022/01/12 04:14:15;;;;;;;16.30;12.30;;;;;;;;;;4956187;28;20775;-71
2022/01/12 04:16:40;;;;;;;18.50;12.97;;;;;;;;;;4974142;28;20214;-71
2022/01/12 04:19:07;;;;;;;17.90;13.53;;;;;;;;;;4956106;28;20295;-73
2022/01/12 04:21:42;;;;;;;17.53;13.37;;;;;;;;;;4972858;28;20297;-78
2022/01/12 04:24:10;;;;;;;19.17;14.13;;;;;;;;;;4973490;28;20288;-73
2022/01/12 04:26:38;;;;;;;19.73;15.20;;;;;;;;;;4953788;28;20217;-73
2022/01/12 04:29:06;;;;;;;20.57;14.70;;;;;;;;;;4975488;28;20609;-72
2022/01/12 04:31:37;;;;;;;19.50;14.67;;;;;;;;;;4963228;28;20225;-72
2022/01/12 04:34:06;;;;;;;22.23;16.17;;;;;;;;;;4956184;28;20250;-72
2022/01/12 04:36:32;;;;;;;23.87;16.80;;;;;;;;;;4967359;28;20272;-72
2022/01/12 04:39:02;;;;;;;26.27;17.53;;;;;;;;;;4975490;28;20320;-72
2022/01/12 04:41:31;;;;;;;23.40;17.60;;;;;;;;;;4964365;28;20269;-71
2022/01/12 04:44:01;;;;;;;26.10;18.70;;;;;;;;;;4940340;28;20226;-71
2022/01/12 04:46:51;;;;;;;27.23;18.80;;;;;;;;;;4966062;28;20562;-71
2022/01/12 04:49:46;;;;;;;25.83;19.17;;;;;;;;;;4977631;28;20706;-72
2022/01/12 04:52:10;;;;;;;27.00;20.40;;;;;;;;;;4975511;28;20718;-72
2022/01/12 04:54:36;;;;;;;33.10;22.30;;;;;;;;;;4939935;28;20233;-72
2022/01/12 04:57:02;;;;;;;28.23;21.53;;;;;;;;;;4983579;28;20225;-73
2022/01/12 04:59:32;;;;;;;33.50;22.70;;;;;;;;;;4957822;28;20606;-73
2022/01/12 05:02:13;;;;;;;33.33;21.57;;;;;;;;;;4955796;28;20734;-73
2022/01/12 05:07:30;;;;;;;30.57;21.97;;;;;;;;;;4960289;28;20214;-73
2022/01/12 05:12:49;;;;;;;34.77;24.23;;;;;;;;;;4954876;28;20694;-74
2022/01/12 05:12:52;;;;;;;35.97;24.93;;;;;;;;;;4986995;28;20244;-73
2022/01/12 05:15:27;;;;;;;35.40;25.93;;;;;;;;;;4972706;28;20611;-73
2022/01/12 05:17:58;;;;;;;35.93;25.47;;;;;;;;;;4971759;28;20234;-72
2022/01/12 05:20:24;;;;;;;34.47;25.23;;;;;;;;;;4954357;28;20301;-73
2022/01/12 05:22:53;;;;;;;35.97;25.47;;;;;;;;;;4971076;28;20301;-73
2022/01/12 05:25:23;;;;;;;41.97;27.27;;;;;;;;;;4975236;28;20230;-72
2022/01/12 05:27:48;;;;;;;37.70;27.27;;;;;;;;;;4960716;28;20362;-73
2022/01/12 05:30:17;;;;;;;40.00;27.63;;;;;;;;;;4960162;28;20282;-73
2022/01/12 05:32:48;;;;;;;39.80;27.33;;;;;;;;;;4958126;28;20353;-74
2022/01/12 05:35:17;;;;;;;37.73;27.30;;;;;;;;;;4941957;28;20317;-73
2022/01/12 05:37:45;;;;;;;36.87;26.30;;;;;;;;;;4962394;28;20226;-73
2022/01/12 05:40:20;;;;;;;39.03;28.50;;;;;;;;;;4955912;28;20222;-71
2022/01/12 05:42:46;;;;;;;37.70;27.47;;;;;;;;;;4984129;28;20244;-72
2022/01/12 05:45:11;;;;;;;37.10;26.90;;;;;;;;;;4938950;28;20218;-73
2022/01/12 05:50:13;;;;;;;36.20;27.33;;;;;;;;;;4955434;28;20305;-73
2022/01/12 05:52:41;;;;;;;36.93;27.20;;;;;;;;;;4940639;28;20214;-73
2022/01/12 05:55:07;;;;;;;40.33;29.53;;;;;;;;;;4937420;28;20233;-73
2022/01/12 05:57:35;;;;;;;44.67;28.90;;;;;;;;;;4964231;28;20640;-73
2022/01/12 06:00:12;;;;;;;41.70;28.93;;;;;;;;;;4958797;28;20292;-72
2022/01/12 06:02:44;;;;;;;43.70;31.13;;;;;;;;;;4964817;28;20268;-72
2022/01/12 06:05:18;;;;;;;41.33;29.83;;;;;;;;;;4954505;28;20300;-72
2022/01/12 06:07:48;;;;;;;47.23;31.73;;;;;;;;;;4980747;28;20771;-72
2022/01/12 06:10:13;;;;;;;45.77;31.23;;;;;;;;;;4990023;28;20689;-73
2022/01/12 06:12:39;;;;;;;43.17;31.83;;;;;;;;;;4949710;28;20310;-72
2022/01/12 06:15:06;;;;;;;48.67;32.30;;;;;;;;;;4938493;28;20280;-72
2022/01/12 06:17:36;;;;;;;50.03;31.87;;;;;;;;;;4961727;28;20293;-74
2022/01/12 06:20:08;;;;;;;47.67;30.87;;;;;;;;;;4989146;28;20295;-72
2022/01/12 06:22:55;;;;;;;47.50;32.57;;;;;;;;;;4981662;28;20301;-72
2022/01/12 06:25:20;;;;;;;46.73;32.20;;;;;;;;;;4954283;28;20210;-73
2022/01/12 06:27:55;;;;;;;48.70;32.57;;;;;;;;;;4968178;28;20229;-72
2022/01/12 06:32:58;;;;;;;47.40;31.20;;;;;;;;;;4950635;28;20226;-72
2022/01/12 06:35:26;;;;;;;43.33;30.40;;;;;;;;;;4962484;28;20226;-72
2022/01/12 06:37:53;;;;;;;47.60;33.27;;;;;;;;;;4954326;28;20209;-72
2022/01/12 06:40:19;;;;;;;52.63;33.03;;;;;;;;;;4954389;28;20667;-72
2022/01/12 06:42:45;;;;;;;50.47;32.80;;;;;;;;;;4958406;28;20309;-72
2022/01/12 06:45:10;;;;;;;52.77;34.63;;;;;;;;;;4989637;28;20766;-72
2022/01/12 06:47:38;;;;;;;52.60;34.70;;;;;;;;;;4970738;28;20218;-72
2022/01/12 06:50:05;;;;;;;59.40;34.60;;;;;;;;;;4953812;28;20277;-72
2022/01/12 06:52:35;;;;;;;56.03;33.77;;;;;;;;;;4956025;28;20305;-72
2022/01/12 06:55:04;;;;;;;61.57;35.50;;;;;;;;;;4958235;28;20312;-72
2022/01/12 06:57:31;;;;;;;59.07;35.97;;;;;;;;;;4973179;28;20273;-72
2022/01/12 06:59:58;;;;;;;58.17;36.03;;;;;;;;;;4970543;28;20704;-72
2022/01/12 07:02:24;;;;;;;59.57;34.90;;;;;;;;;;4937841;28;20277;-72
2022/01/12 07:04:55;;;;;;;60.27;35.37;;;;;;;;;;4989657;28;20293;-72
2022/01/12 07:07:24;;;;;;;55.37;34.60;;;;;;;;;;4960974;28;20262;-71
2022/01/12 07:09:54;;;;;;;62.43;34.10;;;;;;;;;;4959774;28;20217;-71
2022/01/12 07:12:22;;;;;;;62.77;35.13;;;;;;;;;;4957824;28;20260;-71
2022/01/12 07:14:53;;;;;;;65.67;34.83;;;;;;;;;;4976466;28;20238;-73
2022/01/12 07:17:21;;;;;;;58.23;34.13;;;;;;;;;;4941803;28;20226;-72
2022/01/12 07:19:50;;;;;;;62.27;34.63;;;;;;;;;;4974197;28;20221;-72
2022/01/12 07:22:21;;;;;;;64.57;36.03;;;;;;;;;;4976493;28;20248;-72
2022/01/12 07:24:49;;;;;;;62.00;35.53;;;;;;;;;;4961655;28;20241;-73
2022/01/12 07:27:21;;;;;;;60.50;34.63;;;;;;;;;;4972636;28;20218;-72
2022/01/12 07:29:52;;;;;;;61.90;34.53;;;;;;;;;;4988702;28;20222;-72
2022/01/12 07:32:20;;;;;;;65.37;35.57;;;;;;;;;;4975337;28;20230;-73
2022/01/12 07:34:50;;;;;;;59.97;34.57;;;;;;;;;;4973999;28;20846;-72
2022/01/12 07:37:22;;;;;;;75.90;38.20;;;;;;;;;;4993742;28;20225;-73
2022/01/12 07:39:48;;;;;;;64.40;35.67;;;;;;;;;;4979147;28;20653;-73
2022/01/12 07:42:14;;;;;;;59.27;33.77;;;;;;;;;;4973587;28;20249;-72
2022/01/12 07:44:42;;;;;;;63.20;35.27;;;;;;;;;;4969405;28;20221;-72
2022/01/12 07:47:09;;;;;;;62.37;35.50;;;;;;;;;;4992641;28;20225;-71
2022/01/12 07:49:39;;;;;;;63.93;35.07;;;;;;;;;;4981640;28;20225;-72
2022/01/12 07:52:07;;;;;;;61.20;33.60;;;;;;;;;;4971992;28;20720;-72
2022/01/12 07:54:33;;;;;;;61.60;33.17;;;;;;;;;;4970632;28;20283;-71
2022/01/12 07:57:03;;;;;;;66.57;33.27;;;;;;;;;;4992850;28;20221;-72
2022/01/12 07:59:31;;;;;;;64.37;34.30;;;;;;;;;;4983883;28;20221;-72
2022/01/12 08:01:57;;;;;;;62.20;32.50;;;;;;;;;;4972649;28;20229;-71
2022/01/12 08:04:22;;;;;;;66.63;33.50;;;;;;;;;;4963730;28;20236;-71
2022/01/12 08:06:51;;;;;;;61.17;32.80;;;;;;;;;;4961047;28;20221;-72
2022/01/12 08:09:16;;;;;;;65.17;33.87;;;;;;;;;;4986167;28;20274;-72
2022/01/12 08:11:44;;;;;;;74.17;35.97;;;;;;;;;;4956761;28;20209;-72
2022/01/12 08:14:10;;;;;;;70.00;35.37;;;;;;;;;;4973208;28;20716;-70
2022/01/12 08:16:35;;;;;;;76.97;35.47;;;;;;;;;;4970644;28;20321;-72
2022/01/12 08:19:06;;;;;;;71.73;34.27;;;;;;;;;;4973069;28;20700;-73
2022/01/12 08:21:31;;;;;;;70.30;34.90;;;;;;;;;;4959359;28;20256;-71
2022/01/12 08:24:01;;;;;;;71.67;35.83;;;;;;;;;;4992201;28;20680;-72
2022/01/12 08:26:29;;;;;;;68.63;36.60;;;;;;;;;;4968493;28;20253;-72
2022/01/12 08:28:54;;;;;;;75.30;35.43;;;;;;;;;;4948769;28;20301;-71
2022/01/12 08:31:23;;;;;;;76.30;35.70;;;;;;;;;;4952668;28;20708;-72
2022/01/12 08:33:48;;;;;;;70.40;35.73;;;;;;;;;;4973366;28;20225;-72
2022/01/12 08:36:15;;;;;;;74.50;36.17;;;;;;;;;;4936494;28;20787;-74
2022/01/12 08:38:40;;;;;;;69.40;33.47;;;;;;;;;;4954463;28;20238;-70
2022/01/12 08:41:09;;;;;;;59.47;34.17;;;;;;;;;;4971662;28;20222;-70
2022/01/12 08:43:34;;;;;;;75.03;36.43;;;;;;;;;;4973529;28;20738;-71
2022/01/12 08:46:02;;;;;;;74.67;35.90;;;;;;;;;;4989470;28;20229;-71
2022/01/12 08:48:30;;;;;;;67.80;33.10;;;;;;;;;;4981332;28;20222;-71
2022/01/12 08:50:55;;;;;;;65.90;35.53;;;;;;;;;;4972680;28;20281;-71
2022/01/12 08:53:23;;;;;;;74.07;36.57;;;;;;;;;;4940085;28;20293;-70
2022/01/12 08:55:51;;;;;;;72.57;35.63;;;;;;;;;;4973929;28;20230;-71
2022/01/12 08:58:22;;;;;;;72.77;36.20;;;;;;;;;;4973384;28;20249;-71
2022/01/12 09:00:48;;;;;;;69.00;34.70;;;;;;;;;;4950866;28;20265;-70
2022/01/12 09:03:13;;;;;;;67.23;33.77;;;;;;;;;;4990632;28;20229;-71
2022/01/12 09:05:39;;;;;;;72.80;34.37;;;;;;;;;;4942333;28;20289;-73
2022/01/12 09:08:09;;;;;;;70.13;36.07;;;;;;;;;;4939090;28;20226;-72
2022/01/12 09:10:35;;;;;;;72.03;34.53;;;;;;;;;;4940034;28;20309;-72
2022/01/12 09:13:03;;;;;;;69.43;35.23;;;;;;;;;;4967638;28;20321;-72
2022/01/12 09:15:29;;;;;;;70.87;33.47;;;;;;;;;;4972538;28;20232;-73
2022/01/12 09:17:57;;;;;;;74.80;36.23;;;;;;;;;;4971391;28;20225;-72
2022/01/12 09:20:22;;;;;;;71.23;36.90;;;;;;;;;;4959943;28;20261;-72
2022/01/12 09:22:48;;;;;;;71.07;36.13;;;;;;;;;;4975214;28;20234;-73
2022/01/12 09:25:18;;;;;;;65.87;33.30;;;;;;;;;;4936320;28;20298;-73
2022/01/12 09:27:47;;;;;;;74.50;31.83;;;;;;;;;;4969115;28;20226;-72
2022/01/12 09:30:13;;;;;;;72.47;32.37;;;;;;;;;;4957530;28;20296;-73
2022/01/12 09:32:41;;;;;;;72.87;32.57;;;;;;;;;;4954132;28;20222;-72
2022/01/12 09:35:09;;;;;;;76.83;32.23;;;;;;;;;;4953518;28;20234;-72
2022/01/12 09:37:35;;;;;;;61.70;29.67;;;;;;;;;;4955416;28;20754;-72
2022/01/12 09:40:01;;;;;;;66.67;29.33;;;;;;;;;;4971144;28;20222;-73
2022/01/12 09:42:30;;;;;;;69.23;30.20;;;;;;;;;;4990638;28;20225;-73
2022/01/12 09:45:00;;;;;;;51.43;23.77;;;;;;;;;;4975100;28;20229;-72
2022/01/12 09:47:25;;;;;;;64.43;26.83;;;;;;;;;;4956041;28;20275;-73
2022/01/12 09:49:51;;;;;;;55.13;27.10;;;;;;;;;;4971549;28;20222;-72
2022/01/12 09:52:21;;;;;;;59.30;25.43;;;;;;;;;;4969582;28;20225;-73
2022/01/12 09:54:49;;;;;;;54.57;24.33;;;;;;;;;;4974540;28;20233;-73
2022/01/12 09:57:15;;;;;;;53.00;24.17;;;;;;;;;;4974552;28;20225;-72
2022/01/12 09:59:43;;;;;;;51.83;24.60;;;;;;;;;;4955437;28;20218;-74
2022/01/12 10:02:22;;;;;;;49.50;24.13;;;;;;;;;;4984012;28;20229;-74
2022/01/12 10:05:06;;;;;;;49.67;21.87;;;;;;;;;;4974614;28;20205;-73
2022/01/12 10:07:34;;;;;;;46.03;21.60;;;;;;;;;;4974820;28;20222;-74
2022/01/12 10:10:10;;;;;;;44.70;21.17;;;;;;;;;;4954698;28;20703;-73
2022/01/12 10:12:39;;;;;;;38.30;20.70;;;;;;;;;;4970961;28;20717;-73
2022/01/12 10:15:10;;;;;;;40.37;20.93;;;;;;;;;;4974166;28;20233;-72
2022/01/12 10:17:44;;;;;;;46.27;20.83;;;;;;;;;;4959031;28;20222;-73
2022/01/12 10:20:11;;;;;;;44.97;20.67;;;;;;;;;;4954488;28;20321;-73
2022/01/12 10:22:44;;;;;;;44.03;19.97;;;;;;;;;;4954921;28;20226;-73
2022/01/12 10:25:18;;;;;;;44.67;20.53;;;;;;;;;;4954786;28;20273;-72
2022/01/12 10:27:44;;;;;;;48.20;21.90;;;;;;;;;;4975507;28;20232;-73
2022/01/12 10:30:21;;;;;;;47.40;22.60;;;;;;;;;;4996627;28;20221;-73
2022/01/12 10:32:58;;;;;;;49.10;22.13;;;;;;;;;;4960732;28;20300;-73
2022/01/12 10:35:27;;;;;;;40.63;20.63;;;;;;;;;;4923018;28;20693;-73
2022/01/12 10:37:53;;;;;;;43.73;20.23;;;;;;;;;;4969990;28;20221;-75
2022/01/12 10:40:18;;;;;;;43.77;20.83;;;;;;;;;;4973436;28;20692;-73
2022/01/12 10:42:45;;;;;;;39.93;19.73;;;;;;;;;;4979842;28;20233;-73
2022/01/12 10:45:11;;;;;;;38.60;19.77;;;;;;;;;;4958530;28;20703;-74
2022/01/12 10:47:36;;;;;;;42.97;20.73;;;;;;;;;;4969929;28;20300;-74
2022/01/12 10:50:08;;;;;;;43.87;21.90;;;;;;;;;;4977280;28;20691;-73
2022/01/12 10:52:36;;;;;;;46.70;21.53;;;;;;;;;;4961193;28;20225;-73
2022/01/12 10:55:09;;;;;;;42.73;20.83;;;;;;;;;;4977618;28;20229;-74
2022/01/12 10:57:39;;;;;;;46.37;21.33;;;;;;;;;;4967274;28;20226;-74
2022/01/12 11:00:10;;;;;;;51.57;21.47;;;;;;;;;;4973753;28;20218;-73
2022/01/12 11:02:41;;;;;;;43.23;21.03;;;;;;;;;;4983265;28;20225;-74
2022/01/12 11:05:09;;;;;;;48.83;22.93;;;;;;;;;;4994662;28;20260;-73
2022/01/12 11:07:37;;;;;;;46.00;20.20;;;;;;;;;;4968807;28;20722;-74
2022/01/12 11:10:08;;;;;;;41.53;18.97;;;;;;;;;;4973596;28;20747;-73
2022/01/12 11:12:36;;;;;;;40.30;19.27;;;;;;;;;;4966293;28;20233;-74
2022/01/12 11:15:07;;;;;;;41.33;18.43;;;;;;;;;;4992234;28;20221;-73
2022/01/12 11:17:38;;;;;;;44.77;19.73;;;;;;;;;;4985601;28;20230;-72
2022/01/12 11:20:08;;;;;;;42.93;20.50;;;;;;;;;;4973413;28;20222;-72
2022/01/12 11:22:40;;;;;;;43.07;20.73;;;;;;;;;;4963378;28;20234;-72
2022/01/12 11:25:32;;;;;;;42.63;20.13;;;;;;;;;;4993091;28;20642;-72
2022/01/12 11:28:07;;;;;;;42.83;19.53;;;;;;;;;;4983535;28;20230;-72
2022/01/12 11:30:36;;;;;;;48.73;21.00;;;;;;;;;;4957405;28;20226;-72
2022/01/12 11:33:07;;;;;;;54.17;21.53;;;;;;;;;;4974504;28;20230;-72
2022/01/12 11:35:37;;;;;;;46.77;21.10;;;;;;;;;;4974185;28;20865;-72
2022/01/12 11:38:08;;;;;;;44.40;20.77;;;;;;;;;;4983366;28;20284;-73
2022/01/12 11:40:40;;;;;;;55.53;23.70;;;;;;;;;;4978600;28;20305;-74
2022/01/12 11:43:29;;;;;;;54.97;24.10;;;;;;;;;;4984125;28;20700;-74
2022/01/12 11:46:11;;;;;;;51.07;24.30;;;;;;;;;;4957699;28;20230;-72
2022/01/12 11:48:46;;;;;;;61.13;27.00;;;;;;;;;;4984798;28;20225;-72
2022/01/12 11:51:12;;;;;;;53.03;25.43;;;;;;;;;;4991513;28;20225;-72
2022/01/12 11:53:57;;;;;;;59.50;26.13;;;;;;;;;;4985849;28;20225;-72
2022/01/12 11:56:25;;;;;;;55.47;26.60;;;;;;;;;;4972815;28;20268;-73
2022/01/12 11:58:52;;;;;;;63.43;29.80;;;;;;;;;;4985582;28;20244;-73
2022/01/12 12:01:22;;;;;;;62.30;29.17;;;;;;;;;;4976217;28;20252;-73
2022/01/12 12:04:02;;;;;;;55.00;26.10;;;;;;;;;;4978280;28;20229;-73
2022/01/12 12:06:30;;;;;;;46.77;23.40;;;;;;;;;;4970046;28;20601;-74
2022/01/12 12:09:13;;;;;;;41.53;21.60;;;;;;;;;;4949955;28;20226;-74
2022/01/12 12:11:38;;;;;;;48.63;22.33;;;;;;;;;;4966018;28;20233;-73
2022/01/12 12:14:07;;;;;;;43.90;21.03;;;;;;;;;;4958904;28;20230;-72
2022/01/12 12:16:36;;;;;;;45.97;22.83;;;;;;;;;;4957385;28;20237;-73
2022/01/12 12:19:07;;;;;;;43.00;21.90;;;;;;;;;;4940933;28;20226;-72
2022/01/12 12:21:33;;;;;;;43.47;21.03;;;;;;;;;;4956817;28;20237;-73
2022/01/12 12:24:11;;;;;;;42.33;21.30;;;;;;;;;;4966675;28;20226;-73
2022/01/12 12:27:06;;;;;;;44.63;22.00;;;;;;;;;;4992337;28;20229;-72
2022/01/12 12:29:31;;;;;;;40.20;20.47;;;;;;;;;;4959774;28;20276;-72
2022/01/12 12:32:00;;;;;;;41.87;19.37;;;;;;;;;;4970433;28;20222;-74
2022/01/12 12:34:27;;;;;;;41.33;19.53;;;;;;;;;;4966106;28;20775;-73
2022/01/12 12:37:03;;;;;;;37.33;19.70;;;;;;;;;;4957243;28;20301;-73
2022/01/12 12:39:35;;;;;;;39.57;18.90;;;;;;;;;;4968992;28;20220;-72
2022/01/12 12:42:04;;;;;;;42.70;20.97;;;;;;;;;;4991481;28;20233;-73
2022/01/12 12:44:37;;;;;;;40.00;20.17;;;;;;;;;;4980404;28;20218;-73
2022/01/12 12:47:13;;;;;;;41.97;19.83;;;;;;;;;;4972958;28;20222;-72
2022/01/12 12:50:00;;;;;;;37.83;19.53;;;;;;;;;;4972193;28;20232;-73
2022/01/12 12:52:36;;;;;;;36.33;18.73;;;;;;;;;;4971913;28;20720;-74
2022/01/12 12:55:09;;;;;;;36.13;17.83;;;;;;;;;;4959241;28;20226;-73
2022/01/12 12:57:37;;;;;;;35.23;18.40;;;;;;;;;;4964512;28;20221;-74
2022/01/12 13:00:12;;;;;;;28.97;16.43;;;;;;;;;;4940086;28;20276;-74
2022/01/12 13:02:43;;;;;;;30.50;15.30;;;;;;;;;;4956894;28;20716;-71
2022/01/12 13:05:12;;;;;;;34.07;16.27;;;;;;;;;;4975269;28;20301;-73
2022/01/12 13:07:41;;;;;;;29.53;15.33;;;;;;;;;;4970218;28;20225;-73
2022/01/12 13:10:15;;;;;;;33.93;17.27;;;;;;;;;;4967469;28;20225;-72
2022/01/12 13:12:50;;;;;;;31.77;16.93;;;;;;;;;;4990663;28;20221;-72
2022/01/12 13:15:26;;;;;;;37.67;18.37;;;;;;;;;;4960762;28;20222;-71
2022/01/12 13:18:10;;;;;;;31.73;16.90;;;;;;;;;;4971618;28;20704;-71
2022/01/12 13:23:32;;;;;;;40.77;20.43;;;;;;;;;;4964573;28;20759;-71
2022/01/12 13:25:59;;;;;;;41.83;18.93;;;;;;;;;;4957029;28;20305;-72
2022/01/12 13:28:24;;;;;;;31.87;16.83;;;;;;;;;;4950288;28;20222;-71
2022/01/12 13:30:57;;;;;;;36.97;16.23;;;;;;;;;;4972844;28;20237;-72
2022/01/12 13:33:28;;;;;;;32.30;16.20;;;;;;;;;;4955229;28;20843;-71
2022/01/12 13:36:01;;;;;;;33.40;17.10;;;;;;;;;;4967144;28;20230;-71
2022/01/12 13:38:31;;;;;;;33.67;17.27;;;;;;;;;;4990974;28;20237;-72
2022/01/12 13:41:07;;;;;;;36.57;17.63;;;;;;;;;;4958571;28;20233;-72
2022/01/12 13:43:37;;;;;;;30.37;16.97;;;;;;;;;;4971074;28;20229;-72
2022/01/12 13:46:17;;;;;;;32.10;16.63;;;;;;;;;;4987889;28;20305;-70
2022/01/12 13:49:20;;;;;;;34.23;16.60;;;;;;;;;;4976471;28;20221;-71
2022/01/12 13:51:56;;;;;;;33.93;17.43;;;;;;;;;;4951613;28;20234;-73
2022/01/12 13:54:21;;;;;;;31.63;17.77;;;;;;;;;;4953056;28;20292;-73
2022/01/12 13:56:54;;;;;;;33.83;17.10;;;;;;;;;;4974882;28;20225;-71
2022/01/12 13:59:25;;;;;;;32.07;17.23;;;;;;;;;;4991171;28;20221;-73
2022/01/12 14:01:53;;;;;;;33.67;18.27;;;;;;;;;;4970885;28;20232;-72
2022/01/12 14:04:40;;;;;;;35.90;17.80;;;;;;;;;;4970850;28;20236;-72
2022/01/12 14:07:07;;;;;;;35.43;18.53;;;;;;;;;;4951567;28;20301;-72
2022/01/12 14:09:39;;;;;;;42.10;19.80;;;;;;;;;;4937370;28;20254;-70
2022/01/12 14:12:15;;;;;;;35.33;19.07;;;;;;;;;;4974144;28;20666;-71
2022/01/12 14:15:00;;;;;;;36.60;19.17;;;;;;;;;;4989644;28;20314;-71
2022/01/12 14:17:25;;;;;;;38.33;19.47;;;;;;;;;;4973968;28;20738;-72
2022/01/12 14:19:58;;;;;;;38.00;17.90;;;;;;;;;;4977686;28;20218;-70
2022/01/12 14:22:27;;;;;;;33.43;19.10;;;;;;;;;;4962466;28;20598;-74
2022/01/12 14:24:59;;;;;;;35.33;18.13;;;;;;;;;;4990040;28;20688;-74
2022/01/12 14:27:40;;;;;;;31.03;17.17;;;;;;;;;;4968255;28;20226;-74
2022/01/12 14:30:07;;;;;;;34.77;17.87;;;;;;;;;;4944668;28;20225;-72
2022/01/12 14:32:36;;;;;;;37.73;18.17;;;;;;;;;;4961182;28;20226;-72
2022/01/12 14:35:10;;;;;;;31.67;17.67;;;;;;;;;;4975273;28;20236;-74
2022/01/12 14:37:36;;;;;;;32.90;18.37;;;;;;;;;;4981226;28;20216;-71
2022/01/12 14:40:03;;;;;;;31.33;17.33;;;;;;;;;;4993613;28;20241;-72
2022/01/12 14:42:31;;;;;;;31.87;16.83;;;;;;;;;;4974660;28;20226;-71
2022/01/12 14:44:57;;;;;;;30.70;17.57;;;;;;;;;;4974528;28;20312;-71
2022/01/12 14:47:22;;;;;;;40.43;18.83;;;;;;;;;;4978973;28;20319;-71
2022/01/12 14:49:52;;;;;;;37.33;18.90;;;;;;;;;;4941377;28;20309;-71
2022/01/12 14:52:20;;;;;;;37.13;19.93;;;;;;;;;;4965685;28;20229;-72
2022/01/12 14:54:45;;;;;;;34.07;17.97;;;;;;;;;;4986463;28;20272;-71
2022/01/12 14:57:11;;;;;;;35.80;20.27;;;;;;;;;;4988477;28;20301;-71
2022/01/12 14:59:37;;;;;;;39.23;20.90;;;;;;;;;;4989065;28;21093;-71
2022/01/12 15:02:05;;;;;;;37.20;21.47;;;;;;;;;;4982234;28;20218;-71
2022/01/12 15:04:36;;;;;;;38.03;21.20;;;;;;;;;;4983953;28;20237;-70
2022/01/12 15:07:03;;;;;;;33.93;21.90;;;;;;;;;;4968631;28;20696;-72
2022/01/12 15:09:29;;;;;;;36.37;21.37;;;;;;;;;;4969724;28;20280;-73
2022/01/12 15:11:54;;;;;;;42.40;22.20;;;;;;;;;;4963056;28;20598;-71
2022/01/12 15:14:44;;;;;;;36.67;21.27;;;;;;;;;;4941590;28;20760;-72
2022/01/12 15:17:10;;;;;;;33.17;20.47;;;;;;;;;;4978691;28;20221;-73
2022/01/12 15:19:40;;;;;;;35.27;20.53;;;;;;;;;;4969065;28;20304;-72
2022/01/12 15:22:08;;;;;;;33.00;18.87;;;;;;;;;;4983499;28;20265;-72
2022/01/12 15:24:36;;;;;;;32.53;18.30;;;;;;;;;;4984719;28;20225;-72
2022/01/12 15:27:03;;;;;;;32.33;18.20;;;;;;;;;;4985557;28;20220;-72
2022/01/12 15:29:28;;;;;;;33.63;16.90;;;;;;;;;;4966031;28;20242;-72
2022/01/12 15:31:56;;;;;;;31.07;18.07;;;;;;;;;;4982036;28;20320;-72
2022/01/12 15:34:24;;;;;;;30.13;18.03;;;;;;;;;;4984744;28;20222;-71
2022/01/12 15:36:52;;;;;;;30.60;17.80;;;;;;;;;;4984759;28;20230;-72
2022/01/12 15:39:18;;;;;;;32.83;16.83;;;;;;;;;;4982938;28;20710;-72
2022/01/12 15:41:44;;;;;;;27.80;16.17;;;;;;;;;;4975577;28;20210;-73
2022/01/12 15:44:14;;;;;;;28.03;16.50;;;;;;;;;;4979228;28;20786;-72